createdAt,value
2019-05-05T00:00:47.044Z,101721.69
2019-05-05T00:01:47.520Z,101722.38
2019-05-05T00:02:47.943Z,101722.20
2019-05-05T00:03:48.437Z,101723.12
2019-05-05T00:04:49.199Z,101723.36
2019-05-05T00:05:49.785Z,101723.96
2019-05-05T00:06:50.588Z,101724.63
2019-05-05T00:07:50.961Z,101724.89
2019-05-05T00:08:51.360Z,101724.98
2019-05-05T00:09:51.877Z,101725.52
2019-05-05T00:10:54.141Z,101726.08
2019-05-05T00:11:51.973Z,101726.10
2019-05-05T00:12:55.066Z,101726.79
2019-05-05T00:13:52.764Z,101727.20
2019-05-05T00:14:54.684Z,101728.31
2019-05-05T00:15:55.080Z,101728.90
2019-05-05T00:16:54.661Z,101729.23
2019-05-05T00:17:55.100Z,101729.66
2019-05-05T00:18:55.217Z,101730.27
2019-05-05T00:19:56.754Z,101730.94
2019-05-05T00:20:57.225Z,101731.70
2019-05-05T00:21:57.656Z,101732.37
2019-05-05T00:22:58.011Z,101733.54
2019-05-05T00:23:58.457Z,101734.05
2019-05-05T00:24:59.124Z,101735.14
2019-05-05T00:25:59.542Z,101736.42
2019-05-05T00:27:00.088Z,101736.99
2019-05-05T00:28:00.688Z,101737.48
2019-05-05T00:29:01.272Z,101738.09
2019-05-05T00:30:01.881Z,101738.09
2019-05-05T00:31:04.670Z,101738.52
2019-05-05T00:32:02.267Z,101738.84
2019-05-05T00:33:05.546Z,101739.43
2019-05-05T00:34:05.021Z,101739.52
2019-05-05T00:35:04.365Z,101739.61
2019-05-05T00:36:07.507Z,101740.27
2019-05-05T00:37:05.482Z,101740.78
2019-05-05T00:38:06.969Z,101741.02
2019-05-05T00:39:07.445Z,101741.86
2019-05-05T00:39:16.991Z,101751.13
2019-05-05T00:40:18.500Z,101751.13
2019-05-05T00:41:19.127Z,101750.79
2019-05-05T00:42:19.701Z,101750.88
2019-05-05T00:43:20.428Z,101751.47
2019-05-05T00:44:20.984Z,101751.31
2019-05-05T00:45:21.456Z,101751.66
2019-05-05T00:46:21.975Z,101751.64
2019-05-05T00:47:22.660Z,101752.05
2019-05-05T00:48:24.523Z,101752.33
2019-05-05T00:49:22.575Z,101752.23
2019-05-05T00:50:25.238Z,101752.48
2019-05-05T00:51:24.483Z,101753.39
2019-05-05T00:52:24.566Z,101754.16
2019-05-05T00:53:25.092Z,101753.91
2019-05-05T00:54:25.500Z,101754.81
2019-05-05T00:55:26.950Z,101755.33
2019-05-05T00:56:27.616Z,101755.48
2019-05-05T00:57:28.503Z,101755.31
2019-05-05T00:58:29.070Z,101755.41
2019-05-05T00:59:29.480Z,101755.75
2019-05-05T01:00:30.104Z,101755.31
2019-05-05T01:01:29.539Z,101755.23
2019-05-05T01:02:31.308Z,101754.59
2019-05-05T01:03:31.907Z,101754.66
2019-05-05T01:04:32.357Z,101754.07
2019-05-05T01:05:34.409Z,101753.34
2019-05-05T01:06:34.441Z,101752.92
2019-05-05T01:07:32.590Z,101752.92
2019-05-05T01:08:35.238Z,101753.02
2019-05-05T01:09:34.404Z,101752.73
2019-05-05T01:10:35.278Z,101752.84
2019-05-05T01:11:35.662Z,101752.75
2019-05-05T01:12:35.591Z,101753.48
2019-05-05T01:13:36.972Z,101753.91
2019-05-05T01:14:37.491Z,101754.39
2019-05-05T01:15:37.884Z,101755.17
2019-05-05T01:16:38.413Z,101755.22
2019-05-05T01:17:38.853Z,101756.06
2019-05-05T01:18:39.424Z,101756.90
2019-05-05T01:19:39.961Z,101757.56
2019-05-05T01:20:40.560Z,101758.06
2019-05-05T01:21:41.054Z,101759.05
2019-05-05T01:22:41.643Z,101759.31
2019-05-05T01:23:42.154Z,101759.73
2019-05-05T01:24:42.633Z,101759.96
2019-05-05T01:25:45.200Z,101760.64
2019-05-05T01:26:44.593Z,101761.55
2019-05-05T01:27:45.321Z,101761.88
2019-05-05T01:28:44.758Z,101762.45
2019-05-05T01:29:45.261Z,101762.72
2019-05-05T01:30:45.539Z,101763.30
2019-05-05T01:31:47.029Z,101763.28
2019-05-05T01:32:47.495Z,101763.95
2019-05-05T01:33:48.074Z,101764.02
2019-05-05T01:34:48.517Z,101764.28
2019-05-05T01:35:49.133Z,101764.34
2019-05-05T01:36:49.877Z,101764.95
2019-05-05T01:36:59.946Z,101770.23
2019-05-05T01:38:01.414Z,101769.84
2019-05-05T01:39:04.262Z,101770.06
2019-05-05T01:40:01.949Z,101770.33
2019-05-05T01:41:04.229Z,101770.64
2019-05-05T01:42:04.912Z,101770.90
2019-05-05T01:43:05.301Z,101771.98
2019-05-05T01:44:04.856Z,101771.99
2019-05-05T01:45:04.737Z,101772.56
2019-05-05T01:46:06.705Z,101772.50
2019-05-05T01:47:07.215Z,101772.42
2019-05-05T01:48:07.736Z,101772.66
2019-05-05T01:49:08.331Z,101773.16
2019-05-05T01:50:18.279Z,101772.98
2019-05-05T01:51:08.414Z,101773.39
2019-05-05T01:52:09.970Z,101773.56
2019-05-05T01:53:10.487Z,101774.22
2019-05-05T01:54:11.027Z,101774.22
2019-05-05T01:55:11.464Z,101774.73
2019-05-05T01:56:11.915Z,101774.91
2019-05-05T01:57:14.580Z,101775.33
2019-05-05T01:58:11.751Z,101775.33
2019-05-05T01:59:14.354Z,101775.98
2019-05-05T02:00:14.759Z,101776.80
2019-05-05T02:01:15.257Z,101776.48
2019-05-05T02:02:14.633Z,101777.30
2019-05-05T02:03:14.724Z,101778.15
2019-05-05T02:04:14.712Z,101778.97
2019-05-05T02:05:16.262Z,101779.06
2019-05-05T02:06:16.776Z,101779.48
2019-05-05T02:07:17.236Z,101780.16
2019-05-05T02:08:17.640Z,101780.88
2019-05-05T02:09:18.117Z,101781.64
2019-05-05T02:10:18.807Z,101782.33
2019-05-05T02:11:19.279Z,101783.05
2019-05-05T02:12:19.646Z,101783.39
2019-05-05T02:13:20.045Z,101783.83
2019-05-05T02:14:20.473Z,101784.58
2019-05-05T02:15:21.026Z,101785.41
2019-05-05T02:16:21.502Z,101786.25
2019-05-05T02:17:22.061Z,101787.52
2019-05-05T02:18:25.210Z,101787.84
2019-05-05T02:19:24.775Z,101788.42
2019-05-05T02:20:30.777Z,101789.02
2019-05-05T02:21:24.746Z,101789.00
2019-05-05T02:22:25.301Z,101789.08
2019-05-05T02:23:24.816Z,101789.69
2019-05-05T02:24:26.299Z,101790.02
2019-05-05T02:25:26.470Z,101789.92
2019-05-05T02:26:26.972Z,101789.67
2019-05-05T02:27:27.437Z,101790.00
2019-05-05T02:28:27.864Z,101790.34
2019-05-05T02:29:28.444Z,101790.59
2019-05-05T02:30:29.014Z,101791.09
2019-05-05T02:31:29.865Z,101791.34
2019-05-05T02:32:30.356Z,101791.67
2019-05-05T02:33:30.906Z,101791.59
2019-05-05T02:33:39.437Z,101804.52
2019-05-05T02:34:40.841Z,101804.52
2019-05-05T02:35:41.409Z,101804.09
2019-05-05T02:36:41.903Z,101803.57
2019-05-05T02:37:45.439Z,101803.52
2019-05-05T02:38:41.830Z,101804.02
2019-05-05T02:39:55.821Z,101804.85
2019-05-05T02:40:45.102Z,101804.76
2019-05-05T02:41:45.201Z,101805.67
2019-05-05T02:42:45.562Z,101805.85
2019-05-05T02:43:45.018Z,101806.95
2019-05-05T02:44:45.590Z,101807.69
2019-05-05T02:45:44.983Z,101807.84
2019-05-05T02:46:46.479Z,101808.78
2019-05-05T02:47:46.893Z,101809.53
2019-05-05T02:48:46.406Z,101810.37
2019-05-05T02:49:47.950Z,101811.12
2019-05-05T02:50:55.911Z,101812.11
2019-05-05T02:51:47.977Z,101812.63
2019-05-05T02:52:49.460Z,101813.88
2019-05-05T02:53:50.005Z,101814.73
2019-05-05T02:54:50.483Z,101816.48
2019-05-05T02:55:51.014Z,101817.13
2019-05-05T02:56:51.541Z,101817.97
2019-05-05T02:57:54.319Z,101818.47
2019-05-05T02:58:53.653Z,101819.15
2019-05-05T02:59:53.957Z,101820.17
2019-05-05T03:00:54.148Z,101820.73
2019-05-05T03:01:53.836Z,101821.23
2019-05-05T03:02:53.872Z,101821.99
2019-05-05T03:03:54.356Z,101822.44
2019-05-05T03:04:54.295Z,101823.17
2019-05-05T03:05:55.867Z,101824.44
2019-05-05T03:06:56.248Z,101824.92
2019-05-05T03:07:56.491Z,101825.61
2019-05-05T03:08:56.516Z,101826.45
2019-05-05T03:09:56.949Z,101827.52
2019-05-05T03:10:57.700Z,101827.96
2019-05-05T03:11:58.288Z,101829.05
2019-05-05T03:12:58.844Z,101830.63
2019-05-05T03:13:59.576Z,101831.79
2019-05-05T03:15:00.000Z,101832.14
2019-05-05T03:16:00.474Z,101833.14
2019-05-05T03:17:00.908Z,101834.06
2019-05-05T03:18:01.482Z,101834.91
2019-05-05T03:19:00.900Z,101835.25
2019-05-05T03:20:04.132Z,101835.49
2019-05-05T03:21:06.717Z,101836.16
2019-05-05T03:22:03.629Z,101837.33
2019-05-05T03:23:04.198Z,101838.09
2019-05-05T03:24:03.781Z,101838.84
2019-05-05T03:25:04.639Z,101840.27
2019-05-05T03:26:04.412Z,101841.02
2019-05-05T03:27:06.162Z,101842.69
2019-05-05T03:28:06.908Z,101844.36
2019-05-05T03:29:07.494Z,101845.53
2019-05-05T03:30:07.924Z,101846.61
2019-05-05T03:31:08.334Z,101847.61
2019-05-05T03:32:11.671Z,101848.53
2019-05-05T03:33:08.177Z,101849.29
2019-05-05T03:34:09.624Z,101850.44
2019-05-05T03:35:10.232Z,101851.20
2019-05-05T03:35:19.257Z,101868.40
2019-05-05T03:36:20.695Z,101868.73
2019-05-05T03:37:21.163Z,101868.56
2019-05-05T03:38:21.638Z,101868.90
2019-05-05T03:39:23.587Z,101869.33
2019-05-05T03:40:23.767Z,101870.34
2019-05-05T03:41:23.868Z,101870.17
2019-05-05T03:42:24.352Z,101870.91
2019-05-05T03:43:23.693Z,101871.75
2019-05-05T03:44:24.161Z,101872.16
2019-05-05T03:45:23.904Z,101873.17
2019-05-05T03:46:25.530Z,101873.67
2019-05-05T03:47:25.973Z,101874.08
2019-05-05T03:48:26.341Z,101874.67
2019-05-05T03:49:26.842Z,101875.36
2019-05-05T03:50:27.361Z,101875.85
2019-05-05T03:51:27.843Z,101876.76
2019-05-05T03:52:28.403Z,101877.66
2019-05-05T03:53:29.039Z,101878.11
2019-05-05T03:54:29.467Z,101879.02
2019-05-05T03:55:30.335Z,101880.01
2019-05-05T03:56:30.967Z,101881.01
2019-05-05T03:57:31.386Z,101882.17
2019-05-05T03:58:31.802Z,101883.19
2019-05-05T03:59:33.550Z,101884.33
2019-05-05T04:00:33.975Z,101885.42
2019-05-05T04:01:34.473Z,101886.08
2019-05-05T04:02:34.054Z,101887.34
2019-05-05T04:03:34.161Z,101888.42
2019-05-05T04:04:33.875Z,101889.27
2019-05-05T04:05:35.243Z,101890.52
2019-05-05T04:06:35.690Z,101891.25
2019-05-05T04:07:36.174Z,101892.24
2019-05-05T04:08:36.641Z,101893.02
2019-05-05T04:10:14.359Z,101913.20
2019-05-05T04:11:15.794Z,101912.64
2019-05-05T04:12:16.372Z,101912.72
2019-05-05T04:13:17.214Z,101912.96
2019-05-05T04:14:18.496Z,101913.12
2019-05-05T04:15:17.104Z,101912.81
2019-05-05T04:16:18.527Z,101913.22
2019-05-05T04:17:19.061Z,101913.23
2019-05-05T04:18:19.555Z,101913.80
2019-05-05T04:19:20.140Z,101913.95
2019-05-05T04:20:20.684Z,101914.30
2019-05-05T04:21:32.798Z,101914.70
2019-05-05T04:22:21.062Z,101914.95
2019-05-05T04:23:24.437Z,101915.46
2019-05-05T04:24:23.733Z,101916.03
2019-05-05T04:25:24.275Z,101916.38
2019-05-05T04:26:23.501Z,101916.79
2019-05-05T04:27:23.987Z,101916.95
2019-05-05T04:28:24.136Z,101917.38
2019-05-05T04:29:24.525Z,101917.87
2019-05-05T04:30:25.090Z,101918.13
2019-05-05T04:31:26.525Z,101918.73
2019-05-05T04:32:27.156Z,101918.73
2019-05-05T04:33:27.746Z,101919.88
2019-05-05T04:34:28.309Z,101920.64
2019-05-05T04:35:28.835Z,101921.80
2019-05-05T04:36:29.335Z,101922.98
2019-05-05T04:37:29.763Z,101923.58
2019-05-05T04:38:30.304Z,101924.89
2019-05-05T04:39:30.724Z,101925.99
2019-05-05T04:40:31.300Z,101927.14
2019-05-05T04:41:33.791Z,101928.41
2019-05-05T04:42:31.232Z,101929.33
2019-05-05T04:43:33.851Z,101930.82
2019-05-05T04:44:33.995Z,101931.50
2019-05-05T04:45:34.515Z,101931.92
2019-05-05T04:46:33.858Z,101933.09
2019-05-05T04:47:34.258Z,101933.66
2019-05-05T04:48:34.579Z,101934.59
2019-05-05T04:49:34.395Z,101935.36
2019-05-05T04:50:36.058Z,101936.86
2019-05-05T04:51:47.089Z,101937.45
2019-05-05T04:52:36.240Z,101938.11
2019-05-05T04:53:37.757Z,101938.47
2019-05-05T04:54:38.260Z,101939.70
2019-05-05T04:55:38.673Z,101940.39
2019-05-05T04:56:39.197Z,101941.38
2019-05-05T04:57:39.538Z,101941.70
2019-05-05T04:58:39.966Z,101942.97
2019-05-05T04:59:40.401Z,101944.22
2019-05-05T05:00:40.815Z,101945.13
2019-05-05T05:01:41.211Z,101945.64
2019-05-05T05:02:43.583Z,101946.25
2019-05-05T05:03:41.011Z,101946.66
2019-05-05T05:04:44.083Z,101947.74
2019-05-05T05:05:44.196Z,101948.58
2019-05-05T05:06:43.629Z,101949.40
2019-05-05T05:07:43.913Z,101950.51
2019-05-05T05:08:44.425Z,101951.83
2019-05-05T05:09:44.982Z,101952.58
2019-05-05T05:10:46.458Z,101953.42
2019-05-05T05:10:54.987Z,101968.63
2019-05-05T05:11:56.715Z,101968.03
2019-05-05T05:12:57.151Z,101967.95
2019-05-05T05:13:57.594Z,101968.02
2019-05-05T05:14:57.981Z,101968.38
2019-05-05T05:15:58.617Z,101968.47
2019-05-05T05:16:59.052Z,101968.36
2019-05-05T05:17:59.430Z,101968.69
2019-05-05T05:18:59.853Z,101969.05
2019-05-05T05:20:00.390Z,101969.05
2019-05-05T05:21:00.962Z,101970.13
2019-05-05T05:22:02.358Z,101970.20
2019-05-05T05:23:01.030Z,101970.30
2019-05-05T05:24:03.993Z,101970.64
2019-05-05T05:25:04.286Z,101971.22
2019-05-05T05:26:04.865Z,101971.59
2019-05-05T05:27:05.039Z,101971.77
2019-05-05T05:28:04.240Z,101971.86
2019-05-05T05:29:04.536Z,101972.56
2019-05-05T05:30:04.746Z,101972.84
2019-05-05T05:31:04.623Z,101972.85
2019-05-05T05:32:05.990Z,101973.02
2019-05-05T05:33:06.434Z,101973.13
2019-05-05T05:34:07.352Z,101973.66
2019-05-05T05:35:07.881Z,101973.82
2019-05-05T05:36:08.743Z,101974.23
2019-05-05T05:37:09.198Z,101974.59
2019-05-05T05:38:09.577Z,101975.25
2019-05-05T05:39:10.031Z,101976.09
2019-05-05T05:40:10.474Z,101976.77
2019-05-05T05:41:10.964Z,101977.27
2019-05-05T05:42:13.612Z,101978.00
2019-05-05T05:43:10.623Z,101979.09
2019-05-05T05:44:14.004Z,101979.69
2019-05-05T05:45:11.581Z,101980.77
2019-05-05T05:46:13.627Z,101981.77
2019-05-05T05:47:14.084Z,101981.77
2019-05-05T05:48:14.413Z,101982.28
2019-05-05T05:49:14.104Z,101983.17
2019-05-05T05:50:15.566Z,101983.52
2019-05-05T05:51:19.216Z,101984.34
2019-05-05T05:52:19.059Z,101985.20
2019-05-05T05:53:16.155Z,101985.63
2019-05-05T05:54:17.786Z,101986.20
2019-05-05T05:55:18.303Z,101987.62
2019-05-05T05:56:18.716Z,101988.70
2019-05-05T05:57:19.068Z,101989.62
2019-05-05T05:58:19.581Z,101990.80
2019-05-05T05:59:20.007Z,101991.45
2019-05-05T06:00:23.611Z,101992.47
2019-05-05T06:01:19.937Z,101993.13
2019-05-05T06:02:21.448Z,101994.08
2019-05-05T06:03:21.905Z,101994.55
2019-05-05T06:04:23.530Z,101995.72
2019-05-05T06:05:23.617Z,101996.31
2019-05-05T06:06:24.111Z,101996.90
2019-05-05T06:07:24.511Z,101997.84
2019-05-05T06:08:24.292Z,101997.91
2019-05-05T06:09:24.145Z,101998.75
2019-05-05T06:10:27.454Z,101999.26
2019-05-05T06:11:24.903Z,101999.73
2019-05-05T06:11:34.414Z,102003.35
2019-05-05T06:12:34.310Z,102002.80
2019-05-05T06:13:35.873Z,102003.11
2019-05-05T06:14:36.253Z,102003.37
2019-05-05T06:15:36.692Z,102003.37
2019-05-05T06:16:37.095Z,102003.61
2019-05-05T06:17:37.451Z,102004.03
2019-05-05T06:18:37.888Z,102004.11
2019-05-05T06:19:38.418Z,102003.86
2019-05-05T06:20:38.853Z,102004.30
2019-05-05T06:21:39.351Z,102004.53
2019-05-05T06:22:39.833Z,102004.55
2019-05-05T06:23:40.443Z,102004.47
2019-05-05T06:24:40.896Z,102005.23
2019-05-05T06:25:41.300Z,102005.80
2019-05-05T06:26:44.358Z,102006.48
2019-05-05T06:27:41.191Z,102007.22
2019-05-05T06:28:44.593Z,102007.98
2019-05-05T06:29:43.861Z,102008.98
2019-05-05T06:30:44.367Z,102009.49
2019-05-05T06:31:44.787Z,102010.00
2019-05-05T06:32:45.771Z,102010.34
2019-05-05T06:33:44.628Z,102011.34
2019-05-05T06:34:46.213Z,102012.09
2019-05-05T06:35:46.725Z,102013.58
2019-05-05T06:36:47.246Z,102013.84
2019-05-05T06:37:47.905Z,102014.34
2019-05-05T06:38:48.384Z,102015.09
2019-05-05T06:39:49.000Z,102014.50
2019-05-05T06:40:49.899Z,102015.00
2019-05-05T06:41:50.361Z,102014.93
2019-05-05T06:42:51.282Z,102014.85
2019-05-05T06:43:51.736Z,102014.95
2019-05-05T06:44:53.538Z,102014.77
2019-05-05T06:45:53.533Z,102014.70
2019-05-05T06:46:53.740Z,102014.53
2019-05-05T06:47:53.692Z,102014.53
2019-05-05T06:48:53.893Z,102014.27
2019-05-05T06:49:54.207Z,102014.52
2019-05-05T06:50:54.480Z,102015.05
2019-05-05T06:51:54.868Z,102014.95
2019-05-05T06:52:55.385Z,102014.45
2019-05-05T06:53:56.902Z,102014.62
2019-05-05T06:54:57.385Z,102014.55
2019-05-05T06:55:57.835Z,102014.73
2019-05-05T06:56:58.304Z,102013.70
2019-05-05T06:57:58.819Z,102013.20
2019-05-05T06:58:59.367Z,102012.61
2019-05-05T06:59:59.806Z,102012.45
2019-05-05T07:01:00.312Z,102011.71
2019-05-05T07:02:00.999Z,102010.79
2019-05-05T07:03:00.503Z,102009.77
2019-05-05T07:04:03.470Z,102009.08
2019-05-05T07:05:03.926Z,102008.14
2019-05-05T07:06:04.089Z,102007.05
2019-05-05T07:07:04.899Z,102006.52
2019-05-05T07:08:04.390Z,102005.44
2019-05-05T07:09:05.482Z,102004.70
2019-05-05T07:10:04.216Z,102004.36
2019-05-05T07:11:05.871Z,102003.58
2019-05-05T07:11:15.399Z,101987.73
2019-05-05T07:12:17.089Z,101987.57
2019-05-05T07:13:16.585Z,101988.30
2019-05-05T07:14:17.969Z,101988.59
2019-05-05T07:15:18.343Z,101988.70
2019-05-05T07:16:18.842Z,101989.33
2019-05-05T07:17:19.301Z,101989.36
2019-05-05T07:18:19.921Z,101990.01
2019-05-05T07:19:20.704Z,101990.42
2019-05-05T07:20:21.307Z,101990.59
2019-05-05T07:21:23.694Z,101990.42
2019-05-05T07:22:21.279Z,101990.80
2019-05-05T07:23:24.629Z,101990.84
2019-05-05T07:24:23.856Z,101991.10
2019-05-05T07:25:24.266Z,101991.33
2019-05-05T07:26:23.855Z,101991.94
2019-05-05T07:27:24.491Z,101992.13
2019-05-05T07:28:24.954Z,101992.22
2019-05-05T07:29:26.506Z,101992.16
2019-05-05T07:30:27.195Z,101991.80
2019-05-05T07:31:27.762Z,101992.34
2019-05-05T07:32:28.249Z,101992.61
2019-05-05T07:33:28.766Z,101993.41
2019-05-05T07:34:29.218Z,101993.83
2019-05-05T07:35:29.750Z,101994.53
2019-05-05T07:36:30.341Z,101995.13
2019-05-05T07:37:30.754Z,101995.72
2019-05-05T07:38:31.191Z,101996.23
2019-05-05T07:39:33.997Z,101997.14
2019-05-05T07:40:31.181Z,101997.13
2019-05-05T07:41:34.108Z,101997.45
2019-05-05T07:42:33.568Z,101997.93
2019-05-05T07:43:34.453Z,101998.15
2019-05-05T07:44:33.919Z,101998.47
2019-05-05T07:45:34.381Z,101999.09
2019-05-05T07:46:34.726Z,101998.97
2019-05-05T07:47:34.951Z,101999.36
2019-05-05T07:48:36.426Z,101999.98
2019-05-05T07:49:37.005Z,102000.45
2019-05-05T07:50:37.718Z,102000.82
2019-05-05T07:51:37.363Z,102001.61
2019-05-05T07:52:38.859Z,102001.97
2019-05-05T07:53:39.421Z,102002.84
2019-05-05T07:54:40.000Z,102003.20
2019-05-05T07:55:40.639Z,102003.48
2019-05-05T07:56:40.037Z,102004.00
2019-05-05T07:57:43.510Z,102004.61
2019-05-05T07:58:43.711Z,102005.44
2019-05-05T07:59:41.541Z,102005.80
2019-05-05T08:00:43.697Z,102005.55
2019-05-05T08:01:45.771Z,102006.24
2019-05-05T08:02:43.924Z,102006.92
2019-05-05T08:03:44.593Z,102006.86
2019-05-05T08:04:44.064Z,102007.47
2019-05-05T08:05:45.915Z,102007.38
2019-05-05T08:06:46.437Z,102007.73
2019-05-05T08:07:46.849Z,102007.83
2019-05-05T08:08:47.289Z,102008.36
2019-05-05T08:09:47.885Z,102009.46
2019-05-05T08:10:48.390Z,102010.02
2019-05-05T08:10:56.934Z,102026.34
2019-05-05T08:11:58.306Z,102025.44
2019-05-05T08:12:58.792Z,102024.83
2019-05-05T08:13:59.264Z,102024.77
2019-05-05T08:14:59.961Z,102024.50
2019-05-05T08:16:00.305Z,102024.16
2019-05-05T08:16:59.605Z,102024.09
2019-05-05T08:18:01.045Z,102024.22
2019-05-05T08:19:03.751Z,102023.71
2019-05-05T08:20:01.055Z,102023.54
2019-05-05T08:21:04.256Z,102023.36
2019-05-05T08:22:03.645Z,102023.55
2019-05-05T08:23:04.259Z,102023.95
2019-05-05T08:24:04.654Z,102023.92
2019-05-05T08:25:04.246Z,102023.51
2019-05-05T08:26:04.642Z,102023.91
2019-05-05T08:27:04.957Z,102023.66
2019-05-05T08:28:05.249Z,102023.73
2019-05-05T08:29:06.706Z,102023.89
2019-05-05T08:30:07.650Z,102023.94
2019-05-05T08:31:08.041Z,102023.68
2019-05-05T08:32:08.839Z,102023.91
2019-05-05T08:33:44.280Z,102026.09
2019-05-05T08:34:57.476Z,102025.33
2019-05-05T08:35:47.275Z,102025.08
2019-05-05T08:36:45.548Z,102025.31
2019-05-05T08:37:46.914Z,102025.41
2019-05-05T08:38:47.407Z,102025.12
2019-05-05T08:40:20.375Z,102023.09
2019-05-05T08:41:21.862Z,102022.83
2019-05-05T08:42:24.085Z,102022.31
2019-05-05T08:43:24.012Z,102022.47
2019-05-05T08:44:23.665Z,102022.02
2019-05-05T08:45:26.582Z,102021.59
2019-05-05T08:46:24.741Z,102021.64
2019-05-05T08:47:24.622Z,102021.19
2019-05-05T08:48:24.681Z,102021.30
2019-05-05T08:49:24.563Z,102021.61
2019-05-05T08:50:27.137Z,102021.49
2019-05-05T08:51:25.305Z,102021.65
2019-05-05T08:52:26.789Z,102021.61
2019-05-05T08:53:40.730Z,102021.91
2019-05-05T08:54:27.127Z,102022.55
2019-05-05T08:55:28.586Z,102022.70
2019-05-05T08:56:28.037Z,102023.30
2019-05-05T08:57:29.666Z,102023.36
2019-05-05T08:58:30.191Z,102024.34
2019-05-05T08:59:30.567Z,102025.45
2019-05-05T09:00:31.055Z,102026.63
2019-05-05T09:01:31.576Z,102027.36
2019-05-05T09:02:33.990Z,102027.77
2019-05-05T09:03:33.656Z,102028.34
2019-05-05T09:04:34.024Z,102029.30
2019-05-05T09:05:34.336Z,102029.67
2019-05-05T09:06:34.178Z,102029.55
2019-05-05T09:07:34.135Z,102030.00
2019-05-05T09:08:35.168Z,102029.78
2019-05-05T09:09:35.595Z,102030.25
2019-05-05T09:10:36.190Z,102030.48
2019-05-05T09:11:36.623Z,102031.38
2019-05-05T09:12:37.138Z,102032.17
2019-05-05T09:13:37.584Z,102033.08
2019-05-05T09:14:38.001Z,102033.73
2019-05-05T09:15:38.930Z,102034.39
2019-05-05T09:16:39.376Z,102034.69
2019-05-05T09:17:39.864Z,102035.52
2019-05-05T09:18:40.413Z,102036.52
2019-05-05T09:19:41.256Z,102037.35
2019-05-05T09:20:41.797Z,102037.75
2019-05-05T09:21:44.628Z,102038.00
2019-05-05T09:22:41.853Z,102038.47
2019-05-05T09:23:58.660Z,102038.25
2019-05-05T09:24:44.550Z,102037.97
2019-05-05T09:25:44.683Z,102037.91
2019-05-05T09:26:44.337Z,102038.19
2019-05-05T09:27:46.188Z,102037.53
2019-05-05T09:28:46.670Z,102037.39
2019-05-05T09:29:47.094Z,102037.56
2019-05-05T09:30:47.569Z,102037.45
2019-05-05T09:31:47.966Z,102037.32
2019-05-05T09:32:48.458Z,102037.61
2019-05-05T09:33:48.850Z,102037.32
2019-05-05T09:34:49.325Z,102037.13
2019-05-05T09:35:49.135Z,102036.70
2019-05-05T09:36:49.716Z,102036.69
2019-05-05T09:37:51.632Z,102036.50
2019-05-05T09:38:50.386Z,102036.48
2019-05-05T09:39:54.014Z,102036.73
2019-05-05T09:40:51.378Z,102036.91
2019-05-05T09:41:53.592Z,102037.33
2019-05-05T09:42:53.538Z,102037.40
2019-05-05T09:43:53.907Z,102037.50
2019-05-05T09:44:01.479Z,102031.22
2019-05-05T09:45:04.821Z,102031.47
2019-05-05T09:46:03.910Z,102032.29
2019-05-05T09:47:04.751Z,102032.38
2019-05-05T09:48:04.344Z,102032.47
2019-05-05T09:49:04.712Z,102032.72
2019-05-05T09:50:04.122Z,102032.80
2019-05-05T09:51:05.629Z,102032.57
2019-05-05T09:52:06.383Z,102032.58
2019-05-05T09:53:06.926Z,102032.34
2019-05-05T09:54:14.072Z,102032.75
2019-05-05T09:55:07.186Z,102032.25
2019-05-05T09:56:08.755Z,102032.36
2019-05-05T09:57:09.309Z,102032.88
2019-05-05T09:58:10.107Z,102033.55
2019-05-05T09:59:10.972Z,102033.56
2019-05-05T10:00:11.380Z,102034.16
2019-05-05T10:01:14.039Z,102034.80
2019-05-05T10:02:11.774Z,102035.06
2019-05-05T10:03:14.515Z,102035.65
2019-05-05T10:04:14.208Z,102036.08
2019-05-05T10:05:14.764Z,102036.56
2019-05-05T10:06:15.362Z,102037.07
2019-05-05T10:07:15.810Z,102037.14
2019-05-05T10:08:16.228Z,102037.22
2019-05-05T10:09:16.796Z,102037.26
2019-05-05T10:10:17.336Z,102038.01
2019-05-05T10:11:17.817Z,102038.66
2019-05-05T10:12:18.293Z,102039.51
2019-05-05T10:13:17.763Z,102039.82
2019-05-05T10:14:19.560Z,102040.66
2019-05-05T10:15:20.165Z,102041.34
2019-05-05T10:16:20.614Z,102041.75
2019-05-05T10:17:21.119Z,102042.23
2019-05-05T10:18:21.628Z,102042.38
2019-05-05T10:19:24.227Z,102043.43
2019-05-05T10:20:23.636Z,102043.80
2019-05-05T10:21:24.590Z,102044.75
2019-05-05T10:22:23.887Z,102045.09
2019-05-05T10:23:23.724Z,102046.02
2019-05-05T10:24:28.612Z,102046.22
2019-05-05T10:25:24.758Z,102046.79
2019-05-05T10:26:26.256Z,102047.50
2019-05-05T10:27:26.910Z,102047.95
2019-05-05T10:28:27.429Z,102048.33
2019-05-05T10:29:28.239Z,102048.62
2019-05-05T10:30:28.637Z,102049.12
2019-05-05T10:31:29.118Z,102050.08
2019-05-05T10:32:29.567Z,102050.52
2019-05-05T10:33:30.055Z,102050.58
2019-05-05T10:34:30.531Z,102050.64
2019-05-05T10:35:30.956Z,102051.09
2019-05-05T10:36:33.642Z,102051.76
2019-05-05T10:37:31.355Z,102052.07
2019-05-05T10:38:31.614Z,102052.39
2019-05-05T10:39:33.540Z,102052.38
2019-05-05T10:40:33.844Z,102052.87
2019-05-05T10:41:33.816Z,102053.53
2019-05-05T10:42:34.070Z,102053.59
2019-05-05T10:42:44.228Z,102054.88
2019-05-05T10:43:43.720Z,102054.79
2019-05-05T10:44:44.543Z,102055.05
2019-05-05T10:45:44.342Z,102054.53
2019-05-05T10:47:14.172Z,102045.08
2019-05-05T10:48:16.804Z,102044.52
2019-05-05T10:49:16.409Z,102044.42
2019-05-05T10:50:16.945Z,102044.02
2019-05-05T10:51:17.813Z,102043.64
2019-05-05T10:52:18.809Z,102042.80
2019-05-05T10:53:19.585Z,102042.24
2019-05-05T10:54:20.128Z,102042.40
2019-05-05T10:55:20.622Z,102042.09
2019-05-05T10:56:21.062Z,102042.17
2019-05-05T10:57:23.567Z,102041.91
2019-05-05T10:58:21.139Z,102041.70
2019-05-05T10:59:23.775Z,102041.89
2019-05-05T11:00:22.215Z,102041.28
2019-05-05T11:01:23.852Z,102041.22
2019-05-05T11:02:24.480Z,102039.98
2019-05-05T11:03:24.917Z,102039.69
2019-05-05T11:04:25.542Z,102038.92
2019-05-05T11:05:26.036Z,102037.95
2019-05-05T11:06:26.503Z,102036.78
2019-05-05T11:07:26.900Z,102036.27
2019-05-05T11:08:30.523Z,102035.47
2019-05-05T11:09:27.049Z,102034.73
2019-05-05T11:10:28.772Z,102033.80
2019-05-05T11:11:29.263Z,102033.16
2019-05-05T11:12:29.788Z,102032.48
2019-05-05T11:13:30.277Z,102031.64
2019-05-05T11:14:30.678Z,102030.64
2019-05-05T11:15:31.200Z,102029.85
2019-05-05T11:16:32.075Z,102029.39
2019-05-05T11:17:32.891Z,102028.17
2019-05-05T11:18:34.477Z,102027.91
2019-05-05T11:19:33.580Z,102027.03
2019-05-05T11:20:33.994Z,102026.87
2019-05-05T11:21:34.215Z,102026.87
2019-05-05T11:22:34.694Z,102027.28
2019-05-05T11:23:34.916Z,102027.73
2019-05-05T11:24:36.504Z,102027.75